Time;durP1;ratioP1;P1;durP2;ratioP2;P2;SDS_P1;SDS_P2;PMS_P1;PMS_P2;Temp;Humidity;BMP_temperature;BMP_pressure;BME280_temperature;BME280_humidity;BME280_pressure;Samples;Min_cycle;Max_cycle;Signal;HPM_P1;HPM_P2
2023/10/01 00:00:16;;;;;;;12.43;3.75;;;15.40;99.90;;;;;;6248090;22;20401;-92
2023/10/01 00:02:42;;;;;;;10.18;3.85;;;15.40;99.90;;;;;;6249929;22;20374;-93
2023/10/01 00:05:09;;;;;;;10.20;3.13;;;15.60;99.90;;;;;;6247311;22;20405;-94
2023/10/01 00:07:39;;;;;;;9.47;3.00;;;15.40;99.90;;;;;;6249121;22;20454;-94
2023/10/01 00:10:12;;;;;;;10.50;3.03;;;15.40;99.90;;;;;;6247212;22;20402;-93
2023/10/01 00:12:52;;;;;;;10.05;3.70;;;15.50;99.90;;;;;;6249644;22;20378;-93
2023/10/01 00:15:19;;;;;;;11.27;3.60;;;15.40;99.90;;;;;;6247890;22;20374;-93
2023/10/01 00:17:48;;;;;;;8.85;2.85;;;15.50;99.90;;;;;;6248034;22;20371;-92
2023/10/01 00:22:45;;;;;;;11.35;3.75;;;15.50;99.90;;;;;;6271463;22;20440;-94
2023/10/01 00:25:11;;;;;;;11.00;3.70;;;15.80;99.90;;;;;;6249165;22;20375;-94
2023/10/01 00:27:38;;;;;;;10.15;3.40;;;15.50;99.90;;;;;;6246619;22;20374;-93
2023/10/01 00:30:09;;;;;;;11.38;4.03;;;15.50;99.90;;;;;;6248333;22;20366;-93
2023/10/01 00:32:36;;;;;;;13.43;4.25;;;15.50;99.90;;;;;;6273431;22;20374;-93
2023/10/01 00:35:04;;;;;;;11.15;4.25;;;15.60;99.90;;;;;;6247605;22;20432;-93
2023/10/01 00:37:32;;;;;;;9.75;3.10;;;15.50;99.90;;;;;;6249098;22;20751;-93
2023/10/01 00:39:59;;;;;;;13.48;4.40;;;15.50;99.90;;;;;;6246651;22;20416;-93
2023/10/01 00:42:26;;;;;;;12.18;3.72;;;15.50;99.90;;;;;;6248899;22;20390;-92
2023/10/01 00:44:53;;;;;;;12.00;3.60;;;15.50;99.90;;;;;;6245925;22;20398;-93
2023/10/01 00:47:22;;;;;;;11.15;3.80;;;15.50;99.90;;;;;;6249105;22;20405;-92
2023/10/01 00:49:52;;;;;;;12.23;4.15;;;15.50;99.90;;;;;;6242562;22;20704;-94
2023/10/01 00:52:19;;;;;;;10.93;4.10;;;15.50;99.90;;;;;;6244733;22;20359;-93
2023/10/01 00:54:46;;;;;;;10.90;4.13;;;15.50;99.90;;;;;;6248969;22;20394;-93
2023/10/01 00:57:12;;;;;;;12.20;3.85;;;15.80;99.90;;;;;;6245896;22;20385;-93
2023/10/01 00:59:38;;;;;;;12.00;4.30;;;15.50;99.90;;;;;;6249506;22;20367;-92
2023/10/01 01:02:06;;;;;;;12.00;4.60;;;15.80;99.90;;;;;;6246632;22;20373;-93
2023/10/01 01:04:36;;;;;;;11.65;4.80;;;15.40;99.90;;;;;;6249344;22;20367;-93
2023/10/01 01:07:14;;;;;;;13.50;4.63;;;15.60;99.90;;;;;;6247864;22;20371;-93
2023/10/01 01:09:43;;;;;;;11.70;4.13;;;15.40;99.90;;;;;;6247241;22;20427;-93
2023/10/01 01:12:09;;;;;;;9.57;4.70;;;15.40;99.90;;;;;;6249143;22;20363;-93
2023/10/01 01:14:36;;;;;;;13.68;5.60;;;15.40;99.90;;;;;;6246668;22;20776;-93
2023/10/01 01:17:05;;;;;;;12.67;5.17;;;15.40;99.90;;;;;;6249737;22;20454;-94
2023/10/01 01:19:34;;;;;;;11.48;4.60;;;15.40;99.90;;;;;;6247038;22;20367;-94
2023/10/01 01:22:03;;;;;;;15.10;5.82;;;15.40;99.90;;;;;;6248903;22;20433;-93
2023/10/01 01:24:29;;;;;;;15.10;5.75;;;15.90;99.90;;;;;;6247778;22;20385;-94
2023/10/01 01:27:00;;;;;;;13.43;5.20;;;15.10;99.90;;;;;;6247960;22;20893;-93
2023/10/01 01:29:33;;;;;;;13.77;5.13;;;15.40;99.90;;;;;;6249487;22;20366;-93
2023/10/01 01:32:13;;;;;;;13.68;5.25;;;15.40;99.90;;;;;;6246532;22;20729;-93
2023/10/01 01:34:45;;;;;;;12.25;5.70;;;15.40;99.90;;;;;;6249252;22;20444;-94
2023/10/01 01:37:30;;;;;;;14.77;5.25;;;15.40;99.90;;;;;;6248428;22;20488;-94
2023/10/01 01:39:57;;;;;;;15.90;5.60;;;15.20;99.90;;;;;;6249529;22;20726;-94
2023/10/01 01:42:24;;;;;;;14.23;5.32;;;15.50;99.90;;;;;;6251377;22;20358;-94
2023/10/01 01:47:36;;;;;;;13.90;5.43;;;15.50;99.90;;;;;;6277387;22;20362;-93
2023/10/01 01:50:17;;;;;;;15.80;5.80;;;15.80;99.90;;;;;;6249011;22;21081;-93
2023/10/01 01:52:47;;;;;;;11.68;4.65;;;15.50;99.90;;;;;;6249621;22;20404;-94
2023/10/01 01:55:34;;;;;;;13.90;6.85;;;15.50;99.90;;;;;;6251067;22;20373;-94
2023/10/01 01:58:08;;;;;;;12.73;5.93;;;15.60;99.90;;;;;;6248602;22;20375;-93
2023/10/01 02:00:39;;;;;;;17.50;6.60;;;15.50;99.90;;;;;;6251421;22;20399;-94
2023/10/01 02:03:10;;;;;;;12.10;5.57;;;15.70;99.90;;;;;;6249168;22;20402;-94
2023/10/01 02:05:47;;;;;;;15.55;6.85;;;15.80;99.90;;;;;;6250104;22;20428;-95
2023/10/01 02:08:34;;;;;;;15.02;6.63;;;15.70;99.90;;;;;;6251046;22;20424;-94
2023/10/01 02:11:04;;;;;;;13.70;7.07;;;15.70;99.90;;;;;;6248447;22;20374;-93
2023/10/01 02:13:30;;;;;;;15.80;7.33;;;15.50;99.90;;;;;;6251058;22;20358;-93
2023/10/01 02:16:18;;;;;;;13.20;6.05;;;15.50;99.90;;;;;;6248436;22;20369;-94
2023/10/01 02:18:42;;;;;;;18.88;8.50;;;15.90;99.90;;;;;;6275013;22;20374;-93
2023/10/01 02:21:16;;;;;;;15.35;8.90;;;15.40;99.90;;;;;;6250376;22;20394;-93
2023/10/01 02:23:42;;;;;;;18.33;9.65;;;15.40;99.90;;;;;;6248287;22;20843;-93
2023/10/01 02:26:08;;;;;;;15.88;9.27;;;15.70;99.90;;;;;;6250434;22;20385;-93
2023/10/01 02:28:36;;;;;;;16.33;9.30;;;15.90;99.90;;;;;;6248116;22;20410;-94
2023/10/01 02:31:03;;;;;;;17.10;10.03;;;15.60;99.90;;;;;;6250884;22;20707;-93
2023/10/01 02:34:14;;;;;;;16.45;10.60;;;15.40;99.90;;;;;;6249081;22;20856;-93
2023/10/01 02:36:22;;;;;;;20.65;10.98;;;15.70;99.90;;;;;;6258257;22;20775;-93
2023/10/01 02:38:53;;;;;;;18.25;11.30;;;15.40;99.90;;;;;;6250653;22;20367;-93
2023/10/01 02:41:25;;;;;;;16.67;10.83;;;15.50;99.90;;;;;;6248337;22;20387;-93
2023/10/01 02:43:52;;;;;;;19.48;11.30;;;15.40;99.90;;;;;;6250870;22;20383;-94
2023/10/01 02:46:26;;;;;;;17.07;11.10;;;15.30;99.90;;;;;;6248135;22;20363;-94
2023/10/01 02:49:05;;;;;;;17.73;11.63;;;15.70;99.90;;;;;;6249486;22;20371;-91
2023/10/01 02:51:37;;;;;;;18.48;11.07;;;15.40;99.90;;;;;;6250468;22;20437;-93
2023/10/01 02:54:09;;;;;;;17.85;12.38;;;15.40;99.90;;;;;;6248028;22;20660;-93
2023/10/01 02:56:52;;;;;;;19.67;12.23;;;15.40;99.90;;;;;;6251287;22;20405;-92
2023/10/01 02:59:20;;;;;;;17.08;11.80;;;16.30;99.90;;;;;;6248908;22;20737;-94
2023/10/01 03:01:46;;;;;;;15.75;11.57;;;15.40;99.90;;;;;;6249725;22;20425;-93
2023/10/01 03:04:17;;;;;;;20.50;12.88;;;15.60;99.90;;;;;;6250226;22;20980;-93
2023/10/01 03:06:57;;;;;;;20.92;13.23;;;15.60;99.90;;;;;;6248186;22;20416;-93
2023/10/01 03:09:34;;;;;;;20.70;13.98;;;15.90;99.90;;;;;;6250844;22;20813;-94
2023/10/01 03:17:38;;;;;;;18.85;13.63;;;15.30;99.90;;;;;;6275651;22;20367;-94
2023/10/01 03:22:53;;;;;;;17.42;12.02;;;15.40;99.90;;;;;;6229253;22;20371;-93
2023/10/01 03:25:20;;;;;;;18.23;12.55;;;15.40;99.90;;;;;;6247962;22;20505;-94
2023/10/01 03:27:46;;;;;;;21.45;12.70;;;15.80;99.90;;;;;;6250053;22;20370;-92
2023/10/01 03:30:23;;;;;;;20.80;12.32;;;15.60;99.90;;;;;;6249661;22;20379;-94
2023/10/01 03:32:49;;;;;;;16.52;11.60;;;15.40;99.90;;;;;;6247763;22;20824;-93
2023/10/01 03:35:20;;;;;;;17.90;11.88;;;15.50;99.90;;;;;;6250812;22;20484;-94
2023/10/01 03:38:08;;;;;;;17.43;11.67;;;15.90;99.90;;;;;;6247244;22;20420;-94
2023/10/01 03:40:36;;;;;;;17.75;11.77;;;15.40;99.90;;;;;;6275400;22;20398;-93
2023/10/01 03:43:04;;;;;;;19.50;11.35;;;15.60;99.90;;;;;;6249188;22;20398;-93
2023/10/01 03:47:59;;;;;;;17.67;11.37;;;15.50;99.90;;;;;;6275473;22;20369;-94
2023/10/01 03:50:31;;;;;;;17.48;11.82;;;15.70;99.90;;;;;;6247179;22;20561;-91
2023/10/01 03:52:59;;;;;;;17.02;11.65;;;15.70;99.90;;;;;;6250358;22;20839;-93
2023/10/01 03:58:05;;;;;;;16.50;10.57;;;15.70;99.90;;;;;;6275199;22;20367;-93
2023/10/01 04:03:04;;;;;;;17.98;11.05;;;15.50;99.90;;;;;;6273369;22;20385;-93
2023/10/01 04:05:34;;;;;;;14.73;10.10;;;15.80;99.90;;;;;;6249978;22;20367;-93
2023/10/01 04:08:11;;;;;;;17.40;10.82;;;15.60;99.90;;;;;;6247345;22;20363;-94
2023/10/01 04:10:38;;;;;;;16.02;10.43;;;15.50;99.90;;;;;;6249741;22;20692;-94
2023/10/01 04:13:20;;;;;;;15.52;10.10;;;15.50;99.90;;;;;;6248289;22;20363;-94
2023/10/01 04:15:48;;;;;;;15.65;9.73;;;15.60;99.90;;;;;;6247771;22;20374;-93
2023/10/01 04:20:48;;;;;;;17.10;10.40;;;15.60;99.90;;;;;;6272621;22;20390;-94
2023/10/01 04:23:30;;;;;;;16.05;10.10;;;15.60;99.90;;;;;;6249263;22;20850;-93
2023/10/01 04:26:05;;;;;;;17.45;9.88;;;15.30;99.90;;;;;;6243951;22;20375;-92
2023/10/01 04:28:36;;;;;;;15.73;9.85;;;15.60;99.90;;;;;;6246550;22;20374;-94
2023/10/01 04:31:09;;;;;;;16.40;9.70;;;16.00;99.90;;;;;;6248996;22;20390;-93
2023/10/01 04:33:36;;;;;;;14.32;9.00;;;15.60;99.90;;;;;;6246806;22;20369;-93
2023/10/01 04:36:04;;;;;;;15.52;9.60;;;15.70;99.90;;;;;;6249525;22;20888;-93
2023/10/01 04:38:32;;;;;;;14.48;9.82;;;15.60;99.90;;;;;;6246776;22;20377;-93
2023/10/01 04:41:03;;;;;;;15.75;10.15;;;15.60;99.90;;;;;;6245259;22;21040;-93
2023/10/01 04:43:34;;;;;;;17.40;9.90;;;15.60;99.90;;;;;;6247555;22;20362;-93
2023/10/01 04:46:08;;;;;;;18.13;10.10;;;15.50;99.90;;;;;;6248070;22;20367;-93
2023/10/01 04:48:36;;;;;;;14.45;9.43;;;15.60;99.90;;;;;;6249735;22;20370;-93
2023/10/01 04:51:07;;;;;;;17.20;9.88;;;15.60;99.90;;;;;;6246731;22;20370;-93
2023/10/01 04:53:34;;;;;;;16.03;9.60;;;15.60;99.90;;;;;;6248988;22;20427;-94
2023/10/01 04:56:06;;;;;;;17.65;10.10;;;15.60;99.90;;;;;;6246304;22;20367;-93
2023/10/01 04:58:41;;;;;;;16.80;10.50;;;15.70;99.90;;;;;;6273919;22;20362;-94
2023/10/01 05:01:11;;;;;;;20.40;11.40;;;15.70;99.90;;;;;;6248515;22;20830;-94
2023/10/01 05:03:41;;;;;;;18.92;11.13;;;15.60;99.90;;;;;;6246460;22;20441;-93
2023/10/01 05:06:12;;;;;;;17.17;11.35;;;16.00;99.90;;;;;;6249607;22;20366;-93
2023/10/01 05:08:39;;;;;;;17.35;11.43;;;15.60;99.90;;;;;;6246287;22;20409;-94
2023/10/01 05:11:12;;;;;;;19.25;11.60;;;15.60;99.90;;;;;;6249619;22;20366;-93
2023/10/01 05:13:42;;;;;;;18.27;10.68;;;15.60;99.90;;;;;;6247603;22;20926;-93
2023/10/01 05:16:12;;;;;;;18.63;10.65;;;15.50;99.90;;;;;;6248412;22;20366;-94
2023/10/01 05:18:39;;;;;;;19.02;11.20;;;15.50;99.90;;;;;;6249239;22;20367;-93
2023/10/01 05:21:12;;;;;;;18.08;11.13;;;15.50;99.90;;;;;;6246904;22;20386;-93
2023/10/01 05:23:42;;;;;;;19.25;11.40;;;15.50;99.90;;;;;;6249532;22;20859;-92
2023/10/01 05:26:08;;;;;;;18.75;11.20;;;15.40;99.90;;;;;;6246268;22;20729;-93
2023/10/01 05:28:41;;;;;;;17.75;11.27;;;15.40;99.90;;;;;;6249178;22;20366;-92
2023/10/01 05:31:24;;;;;;;17.10;10.43;;;15.70;99.90;;;;;;6247856;22;20362;-92
2023/10/01 05:33:52;;;;;;;19.38;12.25;;;15.40;99.90;;;;;;6247449;22;20374;-93
2023/10/01 05:36:18;;;;;;;18.08;11.57;;;15.70;99.90;;;;;;6249736;22;20390;-94
2023/10/01 05:38:46;;;;;;;20.92;11.88;;;15.80;99.90;;;;;;6246303;22;22544;-93
2023/10/01 05:41:15;;;;;;;19.45;12.38;;;15.70;99.90;;;;;;6249412;22;20854;-92
2023/10/01 05:43:51;;;;;;;19.05;11.52;;;15.30;99.90;;;;;;6247370;22;20359;-92
2023/10/01 05:46:17;;;;;;;21.75;12.05;;;15.90;99.90;;;;;;6249222;22;20688;-92
2023/10/01 05:48:49;;;;;;;18.92;12.13;;;15.10;99.90;;;;;;6249006;22;20363;-91
2023/10/01 05:51:18;;;;;;;19.73;11.95;;;15.30;99.90;;;;;;6246979;22;20436;-92
2023/10/01 05:53:45;;;;;;;22.63;12.88;;;15.30;99.90;;;;;;6248856;22;20453;-92
2023/10/01 05:56:15;;;;;;;21.23;12.77;;;15.30;99.90;;;;;;6245835;22;20955;-93
2023/10/01 05:58:41;;;;;;;21.27;12.43;;;15.30;99.90;;;;;;6248942;22;20445;-94
2023/10/01 06:01:16;;;;;;;21.08;11.90;;;15.50;99.90;;;;;;6247320;22;20394;-93
2023/10/01 06:03:44;;;;;;;19.95;11.88;;;15.60;99.90;;;;;;6248865;22;20365;-93
2023/10/01 06:06:14;;;;;;;22.70;12.60;;;15.70;99.90;;;;;;6248622;22;20677;-92
2023/10/01 06:08:49;;;;;;;20.77;12.07;;;15.30;99.90;;;;;;6246926;22;20370;-93
2023/10/01 06:11:16;;;;;;;22.20;13.45;;;15.70;99.90;;;;;;6249257;22;20369;-93
2023/10/01 06:13:56;;;;;;;22.90;13.73;;;15.60;99.90;;;;;;6246459;22;20366;-92
2023/10/01 06:16:23;;;;;;;19.73;12.63;;;15.30;99.90;;;;;;6249366;22;20739;-94
2023/10/01 06:18:50;;;;;;;21.30;12.20;;;15.30;99.90;;;;;;6247650;22;20358;-93
2023/10/01 06:21:22;;;;;;;23.52;13.60;;;15.30;99.90;;;;;;6247365;22;20433;-91
2023/10/01 06:23:49;;;;;;;22.05;12.77;;;15.40;99.90;;;;;;6249868;22;20843;-93
2023/10/01 06:26:29;;;;;;;21.08;13.57;;;15.40;99.90;;;;;;6248107;22;20371;-92
2023/10/01 06:28:57;;;;;;;22.93;12.50;;;15.40;99.90;;;;;;6250779;22;20385;-93
2023/10/01 06:31:23;;;;;;;20.60;12.85;;;15.40;99.90;;;;;;6248286;22;20873;-93
2023/10/01 06:33:53;;;;;;;24.73;13.18;;;15.40;99.90;;;;;;6251191;22;20796;-91
2023/10/01 06:36:21;;;;;;;22.80;13.13;;;15.50;99.90;;;;;;6249795;22;20365;-93
2023/10/01 06:38:48;;;;;;;23.65;12.90;;;15.60;99.90;;;;;;6248829;22;20378;-94
2023/10/01 06:41:18;;;;;;;21.70;12.30;;;15.60;99.90;;;;;;6250291;22;20386;-92
2023/10/01 06:43:48;;;;;;;21.00;13.67;;;16.00;99.90;;;;;;6248405;22;20373;-93
2023/10/01 06:46:19;;;;;;;27.20;12.32;;;15.60;99.90;;;;;;6250725;22;20363;-93
2023/10/01 06:48:49;;;;;;;18.25;11.57;;;15.70;99.90;;;;;;6247999;22;20374;-92
2023/10/01 06:51:19;;;;;;;23.83;12.07;;;16.00;99.90;;;;;;6250384;22;20420;-94
2023/10/01 06:53:47;;;;;;;25.67;11.70;;;16.10;99.90;;;;;;6249855;22;20370;-93
2023/10/01 06:56:17;;;;;;;21.13;11.50;;;15.90;99.90;;;;;;6248258;22;20390;-92
2023/10/01 07:02:04;;;;;;;21.50;11.38;;;16.20;99.90;;;;;;6272630;22;20897;-93
2023/10/01 07:04:31;;;;;;;19.25;10.40;;;16.10;99.90;;;;;;6267204;22;20847;-93
2023/10/01 07:06:57;;;;;;;19.63;10.93;;;16.10;99.90;;;;;;6250321;22;20369;-93
2023/10/01 07:09:32;;;;;;;17.90;9.43;;;16.20;99.90;;;;;;6247712;22;20367;-92
2023/10/01 07:12:00;;;;;;;18.33;9.55;;;16.20;99.90;;;;;;6250037;22;20431;-93
2023/10/01 07:14:50;;;;;;;15.52;8.95;;;16.20;99.90;;;;;;6247628;22;20363;-93
2023/10/01 07:17:19;;;;;;;16.35;9.02;;;16.10;99.90;;;;;;6249854;22;20370;-93
2023/10/01 07:19:59;;;;;;;17.40;9.13;;;16.20;99.90;;;;;;6249644;22;20368;-93
2023/10/01 07:22:26;;;;;;;14.20;8.30;;;16.20;99.90;;;;;;6247352;22;20421;-93
2023/10/01 07:24:53;;;;;;;17.75;9.13;;;16.20;99.90;;;;;;6249997;22;20377;-93
2023/10/01 07:27:18;;;;;;;17.83;8.50;;;16.50;99.90;;;;;;6246966;22;20836;-93
2023/10/01 07:29:44;;;;;;;16.83;8.38;;;16.30;99.90;;;;;;6250079;22;20354;-94
2023/10/01 07:32:12;;;;;;;15.93;8.57;;;16.60;99.90;;;;;;6247589;22;20374;-93
2023/10/01 07:34:45;;;;;;;15.13;8.65;;;16.30;99.90;;;;;;6249430;22;20377;-95
2023/10/01 07:37:23;;;;;;;16.33;8.50;;;16.30;99.90;;;;;;6249744;22;20427;-93
2023/10/01 07:39:55;;;;;;;17.08;7.97;;;16.60;99.90;;;;;;6247192;22;20677;-94
2023/10/01 07:42:25;;;;;;;15.85;8.20;;;16.50;99.90;;;;;;6250341;22;20874;-92
2023/10/01 07:44:56;;;;;;;16.33;7.78;;;16.70;99.90;;;;;;6246921;22;20370;-93
2023/10/01 07:47:28;;;;;;;16.97;8.23;;;16.90;99.90;;;;;;6249738;22;20417;-95
2023/10/01 07:50:02;;;;;;;14.98;8.07;;;16.60;99.90;;;;;;6249048;22;20367;-92
2023/10/01 07:52:29;;;;;;;17.02;7.70;;;16.50;99.90;;;;;;6247724;22;20454;-93
2023/10/01 07:54:57;;;;;;;15.50;8.00;;;16.50;99.90;;;;;;6249911;22;20389;-93
2023/10/01 07:57:28;;;;;;;15.77;7.45;;;16.90;99.90;;;;;;6247294;22;20359;-93
2023/10/01 08:00:00;;;;;;;15.27;8.00;;;16.50;99.90;;;;;;6251351;22;20445;-93
2023/10/01 08:02:28;;;;;;;16.27;7.63;;;16.50;99.90;;;;;;6247419;22;20373;-92
2023/10/01 08:04:57;;;;;;;16.80;7.77;;;16.50;99.90;;;;;;6250100;22;20371;-92
2023/10/01 08:07:43;;;;;;;16.27;8.20;;;16.80;99.90;;;;;;6249530;22;20380;-93
2023/10/01 08:10:17;;;;;;;14.35;7.32;;;16.50;99.90;;;;;;6247779;22;20366;-92
2023/10/01 08:13:05;;;;;;;16.50;7.57;;;16.60;99.90;;;;;;6250178;22;20867;-92
2023/10/01 08:15:42;;;;;;;17.88;8.05;;;16.70;99.90;;;;;;6247890;22;20882;-92
2023/10/01 08:18:26;;;;;;;15.48;7.28;;;16.80;99.90;;;;;;6249038;22;20381;-92
2023/10/01 08:20:58;;;;;;;17.30;7.40;;;17.20;99.90;;;;;;6249650;22;20394;-92
2023/10/01 08:23:26;;;;;;;14.98;7.70;;;17.20;99.90;;;;;;6247500;22;20441;-93
2023/10/01 08:25:54;;;;;;;14.35;7.07;;;17.10;99.90;;;;;;6249468;22;21272;-93
2023/10/01 08:31:01;;;;;;;15.98;7.43;;;17.30;99.90;;;;;;6275190;22;20409;-93
2023/10/01 08:33:32;;;;;;;15.55;7.20;;;17.40;99.90;;;;;;6249019;22;20362;-93
2023/10/01 08:36:12;;;;;;;16.37;7.27;;;17.60;99.90;;;;;;6247398;22;20416;-92
2023/10/01 08:38:47;;;;;;;14.40;6.80;;;17.60;99.90;;;;;;6251011;22;20374;-92
2023/10/01 08:41:32;;;;;;;17.50;7.50;;;18.00;99.90;;;;;;6247072;22;20382;-93
2023/10/01 08:44:09;;;;;;;15.07;7.57;;;17.90;99.90;;;;;;6249411;22;20461;-93
2023/10/01 08:46:39;;;;;;;15.25;7.65;;;18.10;99.90;;;;;;6249048;22;20371;-92
2023/10/01 08:49:23;;;;;;;14.38;6.88;;;18.30;99.90;;;;;;6247780;22;20710;-93
2023/10/01 08:51:52;;;;;;;15.45;7.57;;;18.50;99.90;;;;;;6249618;22;20420;-92
2023/10/01 08:54:25;;;;;;;14.17;7.43;;;18.60;99.90;;;;;;6247744;22;20425;-92
2023/10/01 08:56:57;;;;;;;15.98;7.35;;;18.70;99.90;;;;;;6249422;22;20535;-92
2023/10/01 08:59:23;;;;;;;15.20;8.00;;;18.60;99.90;;;;;;6249040;22;20424;-93
2023/10/01 09:01:52;;;;;;;14.75;7.32;;;18.90;99.90;;;;;;6247667;22;20386;-93
2023/10/01 09:04:44;;;;;;;15.07;7.27;;;19.30;99.90;;;;;;6249463;22;20365;-93
2023/10/01 09:07:18;;;;;;;18.08;7.60;;;19.00;99.90;;;;;;6246567;22;21021;-94
2023/10/01 09:09:59;;;;;;;17.10;7.83;;;19.50;99.90;;;;;;6249999;22;20359;-91
2023/10/01 09:12:25;;;;;;;18.42;8.10;;;19.30;99.90;;;;;;6248543;22;20367;-93
2023/10/01 09:14:51;;;;;;;18.07;8.63;;;19.40;99.90;;;;;;6248240;22;20358;-94
2023/10/01 09:17:27;;;;;;;15.45;8.32;;;19.70;99.90;;;;;;6249469;22;20406;-92
2023/10/01 09:19:54;;;;;;;17.40;7.90;;;19.70;99.90;;;;;;6247433;22;20363;-92
2023/10/01 09:22:40;;;;;;;15.90;8.10;;;19.70;99.90;;;;;;6249543;22;20451;-93
2023/10/01 09:25:20;;;;;;;16.48;8.05;;;20.20;99.90;;;;;;6247355;22;20435;-93
2023/10/01 09:28:03;;;;;;;17.40;7.97;;;19.80;99.90;;;;;;6273564;22;20417;-93
2023/10/01 09:30:34;;;;;;;18.73;8.13;;;19.90;99.90;;;;;;6249226;22;20367;-95
2023/10/01 09:33:14;;;;;;;18.70;8.30;;;19.90;99.90;;;;;;6247447;22;20673;-92
2023/10/01 09:36:02;;;;;;;16.33;7.75;;;20.00;99.90;;;;;;6249355;22;20396;-92
2023/10/01 09:38:29;;;;;;;15.63;8.00;;;20.00;99.90;;;;;;6248485;22;20381;-94
2023/10/01 09:40:59;;;;;;;18.40;7.80;;;19.90;99.90;;;;;;6247830;22;20394;-92
2023/10/01 09:43:30;;;;;;;17.85;8.07;;;19.90;99.90;;;;;;6250169;22;20446;-92
2023/10/01 09:45:58;;;;;;;18.90;8.30;;;19.80;99.90;;;;;;6247321;22;20442;-92
2023/10/01 09:48:48;;;;;;;19.13;8.80;;;19.80;99.90;;;;;;6249214;22;20362;-93
2023/10/01 09:51:14;;;;;;;17.58;8.27;;;19.80;99.90;;;;;;6248109;22;20374;-92
2023/10/01 09:53:44;;;;;;;15.27;7.53;;;19.70;99.90;;;;;;6248294;22;20371;-93
2023/10/01 09:56:26;;;;;;;17.33;8.17;;;19.80;99.90;;;;;;6248768;22;20381;-92
2023/10/01 09:59:01;;;;;;;16.63;7.75;;;19.90;99.90;;;;;;6248446;22;20461;-92
2023/10/01 10:01:30;;;;;;;13.63;7.72;;;20.10;99.90;;;;;;6251441;22;20382;-92
2023/10/01 10:04:01;;;;;;;16.70;8.07;;;20.20;99.90;;;;;;6249227;22;20355;-93
2023/10/01 10:06:31;;;;;;;17.85;8.05;;;20.30;99.90;;;;;;6251774;22;20375;-94
2023/10/01 10:09:06;;;;;;;17.65;8.00;;;20.40;99.90;;;;;;6250832;22;20462;-92
2023/10/01 10:11:44;;;;;;;15.93;7.40;;;20.40;99.90;;;;;;6248835;22;20389;-92
2023/10/01 10:14:25;;;;;;;17.08;8.48;;;20.70;99.90;;;;;;6251180;22;20846;-93
2023/10/01 10:17:25;;;;;;;17.08;8.02;;;20.60;99.90;;;;;;6248955;22;20704;-92
2023/10/01 10:20:15;;;;;;;19.17;7.63;;;20.70;99.90;;;;;;6247752;22;20382;-91
2023/10/01 10:23:47;;;;;;;13.05;7.53;;;20.80;99.90;;;;;;6275157;22;20858;-88
2023/10/01 10:26:12;;;;;;;17.20;8.40;;;20.90;99.90;;;;;;6263602;22;20384;-90
2023/10/01 10:28:55;;;;;;;16.83;8.13;;;20.90;99.90;;;;;;6267824;22;20451;-90
2023/10/01 10:31:32;;;;;;;17.80;7.72;;;20.80;99.90;;;;;;6243676;22;20426;-90
2023/10/01 10:34:24;;;;;;;16.50;8.85;;;20.80;99.90;;;;;;6241951;22;20373;-89
2023/10/01 10:36:55;;;;;;;17.63;8.77;;;20.60;99.90;;;;;;6271541;22;20369;-89
2023/10/01 10:39:49;;;;;;;17.95;8.65;;;20.50;99.90;;;;;;6268897;22;20369;-88
2023/10/01 10:42:28;;;;;;;17.88;8.05;;;20.50;99.90;;;;;;6240997;22;20388;-91
2023/10/01 10:45:19;;;;;;;19.13;8.70;;;20.40;99.90;;;;;;6243737;22;20372;-89
2023/10/01 10:48:02;;;;;;;17.35;8.20;;;20.40;99.90;;;;;;6242648;22;20391;-89
2023/10/01 10:50:53;;;;;;;17.20;7.90;;;20.40;99.90;;;;;;6267290;22;20430;-92
2023/10/01 10:53:21;;;;;;;16.10;8.00;;;20.50;99.90;;;;;;6269507;22;20372;-94
2023/10/01 10:56:00;;;;;;;16.73;8.27;;;20.70;99.90;;;;;;6241883;22;20465;-89
2023/10/01 10:58:28;;;;;;;18.03;8.77;;;20.70;99.90;;;;;;6243826;22;20364;-92
2023/10/01 11:00:55;;;;;;;16.83;8.63;;;20.70;99.90;;;;;;6269321;22;20388;-93
2023/10/01 11:03:47;;;;;;;17.63;8.70;;;20.80;99.90;;;;;;6243200;22;20364;-91
2023/10/01 11:06:39;;;;;;;15.70;9.02;;;20.80;99.90;;;;;;6237795;22;20376;-91
2023/10/01 11:12:21;;;;;;;16.27;7.70;;;20.90;99.90;;;;;;6268652;22;20364;-94
2023/10/01 11:14:55;;;;;;;18.23;8.77;;;21.00;99.90;;;;;;6270104;22;20391;-90
2023/10/01 11:17:22;;;;;;;17.60;8.77;;;21.00;99.90;;;;;;6241830;22;20449;-93
2023/10/01 11:19:48;;;;;;;17.42;9.50;;;21.30;99.90;;;;;;6244942;22;20690;-90
2023/10/01 11:22:14;;;;;;;18.35;8.30;;;21.10;99.90;;;;;;6267820;22;20388;-90
2023/10/01 11:24:43;;;;;;;16.17;8.00;;;21.10;99.90;;;;;;6269756;22;20372;-91
2023/10/01 11:30:13;;;;;;;17.98;8.32;;;21.30;99.90;;;;;;6267646;22;20463;-92
2023/10/01 11:32:58;;;;;;;17.20;8.35;;;21.40;99.90;;;;;;6270326;22;20369;-92
2023/10/01 11:35:34;;;;;;;15.07;8.53;;;21.40;99.90;;;;;;6268821;22;20379;-93
2023/10/01 11:38:11;;;;;;;16.33;8.52;;;21.40;99.90;;;;;;6243349;22;20371;-93
2023/10/01 11:43:32;;;;;;;17.25;8.50;;;21.50;99.90;;;;;;6267782;22;20383;-95
2023/10/01 11:46:20;;;;;;;14.93;8.48;;;21.60;99.90;;;;;;6243585;22;20360;-92
2023/10/01 11:49:02;;;;;;;15.15;8.45;;;21.70;99.90;;;;;;6244083;22;20399;-89
2023/10/01 11:51:38;;;;;;;16.45;8.75;;;21.70;99.90;;;;;;6242527;22;20374;-91
2023/10/01 11:54:10;;;;;;;17.45;8.52;;;21.70;99.90;;;;;;6243960;22;20406;-91
2023/10/01 11:56:47;;;;;;;17.08;8.50;;;21.70;99.90;;;;;;6241232;22;20364;-90
2023/10/01 11:59:19;;;;;;;18.33;8.85;;;21.70;99.90;;;;;;6243920;22;20376;-92
2023/10/01 12:01:53;;;;;;;16.95;9.00;;;21.70;99.90;;;;;;6243200;22;20430;-95
2023/10/01 12:07:15;;;;;;;17.63;8.85;;;21.80;99.90;;;;;;6270026;22;20372;-93
2023/10/01 12:09:49;;;;;;;19.35;9.43;;;21.90;99.90;;;;;;6241632;22;20364;-95
2023/10/01 12:12:21;;;;;;;16.77;8.77;;;21.90;99.90;;;;;;6244999;22;20805;-90
2023/10/01 12:14:54;;;;;;;16.27;8.82;;;21.90;99.90;;;;;;6242916;22;20434;-90
2023/10/01 12:17:27;;;;;;;17.95;9.20;;;22.00;99.90;;;;;;6268266;22;21021;-92
2023/10/01 12:19:55;;;;;;;17.08;8.65;;;22.30;99.90;;;;;;6243220;22;20478;-93
2023/10/01 12:22:24;;;;;;;16.70;8.93;;;22.20;99.90;;;;;;6266319;22;20876;-90
2023/10/01 12:24:56;;;;;;;17.50;9.27;;;22.30;99.90;;;;;;6274254;22;20375;-92
2023/10/01 12:27:37;;;;;;;15.35;8.90;;;22.30;99.90;;;;;;6247563;22;20443;-91
2023/10/01 12:30:10;;;;;;;16.80;9.17;;;22.00;99.90;;;;;;6272865;22;20387;-91
2023/10/01 12:32:41;;;;;;;16.35;8.50;;;22.00;99.90;;;;;;6247924;22;20450;-91
2023/10/01 12:35:27;;;;;;;14.15;8.15;;;22.00;99.90;;;;;;6271235;22;20445;-90
2023/10/01 12:38:22;;;;;;;17.77;9.20;;;22.00;99.90;;;;;;6273267;22;20367;-90
2023/10/01 12:40:52;;;;;;;16.45;8.75;;;21.80;99.90;;;;;;6247870;22;20390;-92
2023/10/01 12:43:39;;;;;;;15.27;8.77;;;21.70;99.90;;;;;;6271864;22;20366;-92
2023/10/01 12:46:09;;;;;;;16.80;8.43;;;21.60;99.90;;;;;;6248012;22;20362;-90
2023/10/01 12:48:39;;;;;;;17.80;9.18;;;21.60;99.90;;;;;;6271857;22;20367;-91
2023/10/01 12:51:08;;;;;;;17.90;9.20;;;21.70;99.90;;;;;;6248496;22;20394;-91
2023/10/01 12:53:50;;;;;;;19.02;9.10;;;21.80;99.90;;;;;;6247003;22;20447;-89
2023/10/01 12:56:21;;;;;;;20.30;9.93;;;21.90;99.90;;;;;;6272240;22;21268;-93
2023/10/01 12:58:56;;;;;;;17.42;9.57;;;22.00;99.90;;;;;;6250784;22;20405;-93
2023/10/01 13:01:31;;;;;;;18.47;8.73;;;22.10;99.90;;;;;;6246475;22;20450;-92
2023/10/01 13:04:21;;;;;;;16.90;9.60;;;22.20;99.90;;;;;;6273297;22;20375;-92
2023/10/01 13:06:46;;;;;;;14.63;8.33;;;22.60;99.90;;;;;;6272836;22;20366;-91
2023/10/01 13:12:14;;;;;;;17.45;10.15;;;22.60;99.90;;;;;;6273871;22;20415;-91
2023/10/01 13:14:41;;;;;;;16.52;9.07;;;22.60;99.90;;;;;;6245405;22;20370;-93
2023/10/01 13:17:19;;;;;;;18.58;9.23;;;22.60;99.90;;;;;;6248569;22;20701;-91
2023/10/01 13:19:48;;;;;;;16.35;8.95;;;22.70;99.90;;;;;;6247237;22;21070;-91
2023/10/01 13:22:16;;;;;;;17.95;9.40;;;22.80;99.90;;;;;;6246777;22;20395;-91
2023/10/01 13:24:53;;;;;;;17.23;9.27;;;22.90;99.90;;;;;;6249269;22;20367;-94
2023/10/01 13:27:20;;;;;;;16.73;9.40;;;22.90;99.90;;;;;;6248770;22;20370;-93
2023/10/01 13:29:49;;;;;;;16.45;9.68;;;22.70;99.90;;;;;;6250350;22;20363;-94
2023/10/01 13:32:16;;;;;;;17.35;9.75;;;22.60;99.90;;;;;;6247941;22;20848;-93
2023/10/01 13:35:21;;;;;;;16.42;9.65;;;22.50;99.90;;;;;;6250037;22;20875;-90
2023/10/01 13:37:42;;;;;;;17.45;9.63;;;22.50;99.90;;;;;;6274175;22;20410;-93
2023/10/01 14:10:36;;;;;;;15.93;9.60;;;22.20;99.90;;;;;;6271750;22;21078;-90
2023/10/01 14:13:04;;;;;;;18.37;10.37;;;22.10;99.90;;;;;;6273897;22;20745;-90
2023/10/01 14:15:29;;;;;;;16.85;9.65;;;22.30;99.90;;;;;;6270590;22;20374;-89